Earlton, Earlton (Timiskaming Regional) Airport (CYXR)

NameEarlton (Timiskaming Regional) Airport
CityEarlton
CountryCanada
ICAOCYXR
IATAYXR
Altitude244 m
CoordinatesGoogle Map
Live Air TrafficLiveATC.net
METARCYXR 231300Z AUTO 22010KT 9SM OVC033 M04/M06 A3033 RMK ICG SLP291
2019-02-23 13:00:00 Wind: South-Southwest (220°) 5.14 m/s - Visibility: 14484.06 m - Temperature: -4 °C - Dew point: -6 °C - Humidity: 86.2% - Pressure: 1027.09 hPa

Sorry, no flights used the airport in this database.